Latest Weather Observations for Walpeup

IDV60801

Issued at 3:31 pm EDT Wednesday 10 February 2016 (issued every 30 minutes, with the page automatically refreshed every 10 minutes)

About weather observations | Map of weather stations | Latest weather observations for VIC | Other Formats
Station Details ID: 076064 Name: WALPEUP RESEARCH Lat: -35.12 Lon: 142.00 Height: 105.0 m
Data from the previous 72 hours. | See also: Recent months at Walpeup
Date/Time
EDT
Temp
°C
App
Temp
°C
Dew
Point
Rel
Hum
%
Delta-T
°C
Wind Press
QNH
hPa
Press
MSL
hPa
Rain
since 9 am
mm
Dir
 
Spd
km/h
Gust
km/h
Spd
kts
Gust
kts
10/03:30pm 35.1 31.4 4.6 15 16.3 SW 13 24 7 13 - - 0.0
10/03:00pm 35.0 32.5 4.5 15 16.3 WSW 7 17 4 9 - - 0.0
10/02:30pm 35.1 32.6 4.6 15 16.3 WNW 7 20 4 11 - - 0.0
10/02:00pm 34.2 30.4 3.9 15 15.9 SW 13 24 7 13 - - 0.0
10/01:30pm 33.8 29.7 4.5 16 15.5 SSW 15 24 8 13 - - 0.0
10/01:00pm 32.8 29.7 5.4 18 14.6 S 11 20 6 11 - - 0.0
10/12:30pm 31.6 28.3 6.6 21 13.5 S 13 20 7 11 - - 0.0
10/12:00pm 30.9 28.7 8.0 24 12.6 S 9 17 5 9 - - 0.0
10/11:30am 29.8 27.7 8.2 26 11.9 SSW 9 15 5 8 - - 0.0
10/11:00am 28.7 27.4 9.9 31 10.6 S 7 13 4 7 - - 0.0
10/10:30am 27.2 25.3 10.4 35 9.5 SSE 11 19 6 10 - - 0.0
10/10:00am 25.5 23.2 10.5 39 8.4 SE 13 19 7 10 - - 0.0
10/09:30am 23.7 21.5 10.7 44 7.2 SE 13 19 7 10 - - 0.0
10/09:00am 22.0 20.2 10.8 49 6.2 SE 11 15 6 8 - - 0.0
10/08:30am 20.1 18.3 10.8 55 5.1 SSE 11 15 6 8 - - 0.0
10/08:00am 18.5 16.2 10.6 60 4.3 SSE 13 19 7 10 - - 0.0
10/07:30am 17.5 15.2 10.6 64 3.7 SSE 13 19 7 10 - - 0.0
10/07:00am 17.1 14.7 10.2 64 3.7 SSE 13 20 7 11 - - 0.0
10/06:30am 17.0 14.0 9.2 60 4.1 SSE 15 20 8 11 - - 0.0
10/06:00am 17.5 14.3 8.4 55 4.7 SSE 15 19 8 10 - - 0.0
10/05:30am 18.3 15.2 7.1 48 5.7 SSE 13 20 7 11 - - 0.0
10/05:00am 19.0 16.2 7.1 46 6.0 SSE 11 15 6 8 - - 0.0
10/04:30am 19.3 16.2 5.7 41 6.7 SSE 11 17 6 9 - - 0.0
10/04:00am 19.6 16.2 4.1 36 7.4 SSE 11 15 6 8 - - 0.0
10/03:30am 19.5 16.4 3.6 35 7.6 SSE 9 13 5 7 - - 0.0
10/03:00am 20.1 17.0 3.8 34 7.8 S 9 11 5 6 - - 0.0
10/02:30am 20.7 17.7 4.3 34 8.0 S 9 13 5 7 - - 0.0
10/02:00am 21.9 19.4 3.6 30 8.8 SSW 6 7 3 4 - - 0.0
10/01:30am 22.3 19.4 2.4 27 9.4 SSW 7 11 4 6 - - 0.0
10/01:00am 23.4 19.8 0.5 22 10.6 SSW 9 11 5 6 - - 0.0
10/12:30am 24.2 20.3 -1.6 18 11.5 S 9 11 5 6 - - 0.0
10/12:00am 25.0 21.5 -1.7 17 12.0 SSW 7 9 4 5 - - 0.0
 
Date/Time
EDT
Temp
°C
App
Temp
°C
Dew
Point
Rel
Hum
%
Delta-T
°C
Wind Press
QNH
hPa
Press
MSL
hPa
Rain
since 9 am
mm
Dir
 
Spd
km/h
Gust
km/h
Spd
kts
Gust
kts
09/11:30pm 25.0 21.6 -1.7 17 12.0 SSW 6 6 3 3 - - 0.0
09/11:00pm 25.2 22.0 -0.8 18 11.9 SW 6 9 3 5 - - 0.0
09/10:30pm 25.8 22.9 -1.1 17 12.3 SSW 4 6 2 3 - - 0.0
09/10:00pm 27.1 23.3 -0.9 16 12.9 S 9 11 5 6 - - 0.0
09/09:30pm 27.2 23.7 -1.7 15 13.2 S 7 9 4 5 - - 0.0
09/09:00pm 29.9 26.9 -1.5 13 14.7 S 4 6 2 3 - - 0.0
09/08:30pm 32.0 29.0 -2.1 11 16.0 WSW 4 6 2 3 - - 0.0
09/08:00pm 33.9 29.4 -3.4 9 17.4 SW 11 17 6 9 - - 0.0
09/07:30pm 34.7 30.1 -1.4 10 17.5 SW 13 20 7 11 - - 0.0
09/07:00pm 35.3 31.1 -0.9 10 17.7 WSW 11 19 6 10 - - 0.0
09/06:30pm 35.5 31.3 -0.8 10 17.8 WSW 11 24 6 13 - - 0.0
09/06:00pm 36.0 31.3 0.9 11 17.8 WSW 15 24 8 13 - - 0.0
09/05:30pm 35.7 31.5 1.9 12 17.4 W 13 24 7 13 - - 0.0
09/05:00pm 36.1 31.8 1.0 11 17.8 WNW 13 22 7 12 - - 0.0
09/04:30pm 35.6 31.2 0.6 11 17.6 W 13 28 7 15 - - 0.0
09/04:00pm 35.2 31.6 0.3 11 17.4 WSW 9 17 5 9 - - 0.0
09/03:30pm 34.5 30.0 -0.2 11 17.1 SW 13 26 7 14 - - 0.0
09/03:00pm 34.7 31.4 -0.1 11 17.2 SW 7 17 4 9 - - 0.0
09/02:30pm 32.0 28.5 1.2 14 15.3 S 9 15 5 8 - - 0.0
09/02:00pm 31.4 28.6 3.4 17 14.4 SW 7 17 4 9 - - 0.0
09/01:30pm 31.4 29.0 4.2 18 14.1 SW 6 11 3 6 - - 0.0
09/01:00pm 30.1 27.9 5.4 21 13.0 S 6 19 3 10 - - 0.0
09/12:30pm 28.7 26.8 6.7 25 11.7 S 6 11 3 6 - - 0.0
09/12:00pm 27.2 25.2 7.1 28 10.7 S 7 15 4 8 - - 0.0
09/11:30am 25.8 24.0 7.9 32 9.6 ESE 7 15 4 8 - - 0.0
09/11:00am 24.0 21.9 8.4 37 8.4 ESE 9 13 5 7 - - 0.0
09/10:30am 23.0 21.4 10.1 44 7.1 ESE 9 13 5 7 - - 0.0
09/10:00am 21.5 19.0 9.7 47 6.4 ESE 13 20 7 11 - - 0.0
09/09:30am 19.8 17.4 10.2 54 5.2 SE 13 20 7 11 - - 0.0
09/09:00am 18.5 15.8 10.3 59 4.4 SE 15 20 8 11 - - 0.0
09/08:30am 16.8 14.2 10.6 67 3.3 SE 15 20 8 11 - - 0.0
09/08:00am 15.5 13.0 10.9 74 2.5 SSE 15 20 8 11 - - 0.0
09/07:30am 14.8 12.6 10.8 77 2.1 SSE 13 19 7 10 - - 0.0
09/07:00am 14.8 12.2 10.6 76 2.2 SSE 15 20 8 11 - - 0.0
09/06:30am 15.2 12.6 10.6 74 2.4 SSE 15 20 8 11 - - 0.0
09/06:00am 15.7 13.4 10.5 71 2.8 SSE 13 17 7 9 - - 0.0
09/05:30am 16.3 13.7 10.6 69 3.0 SSE 15 19 8 10 - - 0.0
09/05:00am 16.8 13.8 10.6 67 3.3 SSE 17 26 9 14 - - 0.0
09/04:30am 17.4 14.0 10.5 64 3.7 SSE 19 26 10 14 - - 0.0
09/04:00am 18.0 14.6 10.4 61 4.1 SSE 19 26 10 14 - - 0.0
09/03:30am 18.7 15.2 10.3 58 4.5 SSE 19 30 10 16 - - 0.0
09/03:00am 19.2 15.4 9.7 54 5.1 SSE 20 30 11 16 - - 0.0
09/02:30am 19.9 15.9 9.2 50 5.7 SSE 20 30 11 16 - - 0.0
09/02:00am 20.8 16.0 8.8 46 6.4 SSE 24 37 13 20 - - 0.0
09/01:30am 21.5 16.8 7.7 41 7.2 SSE 22 30 12 16 - - 0.0
09/01:00am 22.6 17.9 7.6 38 7.9 SSE 22 35 12 19 - - 0.0
09/12:30am 23.5 17.9 7.2 35 8.5 SSE 26 37 14 20 - - 0.0
09/12:00am 24.5 18.9 7.2 33 9.1 SSE 26 37 14 20 - - 0.0
 
Date/Time
EDT
Temp
°C
App
Temp
°C
Dew
Point
Rel
Hum
%
Delta-T
°C
Wind Press
QNH
hPa
Press
MSL
hPa
Rain
since 9 am
mm
Dir
 
Spd
km/h
Gust
km/h
Spd
kts
Gust
kts
08/11:30pm 25.4 20.7 6.1 29 10.0 SSE 20 26 11 14 - - 0.0
08/11:00pm 26.4 21.3 4.2 24 11.2 SSE 20 28 11 15 - - 0.0
08/10:30pm 27.1 21.7 2.2 20 12.2 S 20 26 11 14 - - 0.0
08/10:00pm 27.8 23.0 0.5 17 13.0 S 15 20 8 11 - - 0.0
08/09:30pm 29.0 24.4 1.5 17 13.4 S 15 20 8 11 - - 0.0
08/09:00pm 30.2 25.4 2.5 17 13.9 S 17 20 9 11 - - 0.0
08/08:30pm 31.7 27.1 3.7 17 14.5 S 17 20 9 11 - - 0.0
08/08:00pm 32.9 28.3 5.5 18 14.7 S 19 26 10 14 - - 0.0
08/07:30pm 33.7 29.2 6.1 18 15.0 S 19 28 10 15 - - 0.0
08/07:00pm 34.5 30.3 7.5 19 15.0 SSW 19 28 10 15 - - 0.0
08/06:30pm 35.4 31.8 8.3 19 15.4 SSW 17 24 9 13 - - 0.0
08/06:00pm 35.0 31.5 8.7 20 15.0 SSW 17 26 9 14 - - 0.0
08/05:30pm 35.4 31.6 9.0 20 15.1 S 19 30 10 16 - - 0.0
08/05:00pm 35.5 32.1 9.1 20 15.2 SSW 17 24 9 13 - - 0.0
08/04:30pm 35.4 31.4 9.0 20 15.1 SSW 20 28 11 15 - - 0.0
08/04:00pm 35.8 32.8 9.3 20 15.3 SW 15 28 8 15 - - 0.0
08/03:30pm 35.3 32.4 9.7 21 14.8 S 15 30 8 16 - - 0.0
08/03:00pm 34.3 31.4 9.5 22 14.2 SSW 15 28 8 15 - - 0.0
08/02:30pm 33.8 31.3 9.8 23 13.8 SSW 13 20 7 11 - - 0.0
08/02:00pm 33.5 30.9 10.8 25 13.3 SSW 15 24 8 13 - - 0.0
08/01:30pm 32.8 31.0 10.8 26 12.8 S 11 22 6 12 - - 0.0
08/01:00pm 32.1 29.7 11.3 28 12.2 SSW 15 24 8 13 - - 0.0
08/12:30pm 31.4 29.1 11.7 29 11.6 SSW 15 22 8 12 - - 0.0
08/12:00pm 29.8 28.3 11.8 33 10.5 S 11 20 6 11 - - 0.0
08/11:30am 28.6 26.9 11.2 34 10.0 S 11 20 6 11 - - 0.0
08/11:00am 27.9 25.5 11.5 36 9.4 SSE 15 20 8 11 - - 0.0
08/10:30am 26.9 25.0 11.8 39 8.7 SE 13 19 7 10 - - 0.0
08/10:00am 25.3 23.6 12.5 45 7.4 S 13 20 7 11 - - 0.0
08/09:30am 23.8 22.6 12.8 50 6.4 SSE 11 15 6 8 - - 0.0
08/09:00am 22.1 20.1 12.6 55 5.4 SSE 15 20 8 11 - - 0.0
08/08:30am 20.7 18.7 12.7 60 4.5 SSE 15 20 8 11 - - 0.0
08/08:00am 19.1 17.1 12.6 66 3.7 S 15 20 8 11 - - 0.0
08/07:30am 18.4 16.7 12.4 68 3.4 S 13 17 7 9 - - 0.0
08/07:00am 18.6 16.9 12.4 67 3.5 S 13 20 7 11 - - 0.0
08/06:30am 19.1 16.5 12.1 64 3.9 SSE 17 22 9 12 - - 0.0
08/06:00am 19.5 16.8 11.8 61 4.3 S 17 24 9 13 - - 0.0
08/05:30am 20.0 16.8 11.2 57 4.9 S 19 24 10 13 - - 0.0
08/05:00am 20.6 17.4 11.2 55 5.2 S 19 24 10 13 - - 0.0
08/04:30am 21.2 17.4 11.0 52 5.6 S 22 28 12 15 - - 0.0
08/04:00am 21.9 18.1 11.3 51 5.9 S 22 28 12 15 - - 0.0
08/03:30am 22.4 18.8 11.8 51 6.0 S 22 28 12 15 - - 0.0
08/03:00am 22.9 19.3 11.9 50 6.2 S 22 28 12 15 - - 0.0
08/02:30am 23.5 20.0 12.2 49 6.5 S 22 28 12 15 - - 0.0
08/02:00am 24.4 21.0 12.4 47 6.9 S 22 32 12 17 - - 0.0
08/01:30am 25.3 21.3 11.8 43 7.7 S 24 33 13 18 - - 0.0
08/01:00am 26.3 22.0 12.0 41 8.2 S 26 35 14 19 - - 0.0
08/12:30am 27.0 22.9 10.2 35 9.4 SSW 22 30 12 16 - - 0.0
08/12:00am 28.2 24.1 8.5 29 10.8 SSW 20 28 11 15 - - 0.0
 
Date/Time
EDT
Temp
°C
App
Temp
°C
Dew
Point
Rel
Hum
%
Delta-T
°C
Wind Press
QNH
hPa
Press
MSL
hPa
Rain
since 9 am
mm
Dir
 
Spd
km/h
Gust
km/h
Spd
kts
Gust
kts
07/11:30pm 30.0 25.9 7.8 25 12.2 SSW 19 32 10 17 - - 0.0
07/11:00pm 27.7 25.1 5.9 25 11.4 SSW 9 11 5 6 - - 0.0
07/10:30pm 28.0 25.7 5.6 24 11.7 S 7 9 4 5 - - 0.0
07/10:00pm 30.0 27.8 5.3 21 13.0 ESE 6 6 3 3 - - 0.0
07/09:30pm 30.8 28.6 5.3 20 13.5 ESE 6 7 3 4 - - 0.0
07/09:00pm 32.1 29.8 4.8 18 14.4 E 6 7 3 4 - - 0.0
07/08:30pm 33.4 31.1 5.0 17 15.1 ESE 6 9 3 5 - - 0.0
07/08:00pm 34.5 31.3 5.0 16 15.8 ESE 11 20 6 11 - - 0.0
07/07:30pm 34.8 31.9 4.4 15 16.2 ESE 9 19 5 10 - - 0.0
07/07:00pm 35.8 33.0 5.1 15 16.6 S 9 15 5 8 - - 0.0
07/06:30pm 36.1 33.2 4.4 14 17.0 SE 9 20 5 11 - - 0.0
07/06:00pm 35.9 33.5 5.2 15 16.6 ESE 7 26 4 14 - - 0.0
07/05:30pm 36.3 34.0 5.5 15 16.8 SSE 7 15 4 8 - - 0.0
07/05:00pm 36.3 33.2 5.5 15 16.8 ESE 11 22 6 12 - - 0.0
07/04:30pm 37.3 34.4 6.3 15 17.2 WSW 11 17 6 9 - - 0.0
07/04:00pm 36.1 33.0 5.4 15 16.7 S 11 22 6 12 - - 0.0

Other Formats:

Comma delimited format used in spreadsheet applications
http://www.bom.gov.au/fwo/IDV60801/IDV60801.95831.axf

JavaScript Object Notation format (JSON) in row-major order
http://www.bom.gov.au/fwo/IDV60801/IDV60801.95831.json